createdAt,value
2019-03-17T00:01:38.787Z,99.90
2019-03-17T00:04:10.714Z,99.90
2019-03-17T00:06:42.616Z,99.90
2019-03-17T00:09:14.347Z,99.90
2019-03-17T00:11:46.284Z,99.90
2019-03-17T00:14:20.288Z,99.90
2019-03-17T00:16:52.114Z,99.90
2019-03-17T00:19:23.794Z,99.90
2019-03-17T00:21:55.534Z,99.90
2019-03-17T00:24:27.583Z,99.90
2019-03-17T00:26:59.219Z,99.90
2019-03-17T00:29:31.037Z,99.90
2019-03-17T00:32:02.757Z,99.90
2019-03-17T00:34:43.725Z,99.90
2019-03-17T00:37:08.214Z,99.90
2019-03-17T00:39:39.944Z,99.90
2019-03-17T00:42:11.653Z,99.90
2019-03-17T00:44:43.222Z,99.90
2019-03-17T00:47:15.031Z,99.90
2019-03-17T00:49:46.677Z,99.90
2019-03-17T00:52:18.453Z,99.90
2019-03-17T00:54:50.172Z,99.90
2019-03-17T00:57:21.828Z,99.90
2019-03-17T00:59:53.558Z,99.90
2019-03-17T01:02:25.296Z,99.90
2019-03-17T01:04:57.177Z,99.90
2019-03-17T01:07:28.860Z,99.90
2019-03-17T01:10:00.705Z,99.90
2019-03-17T01:12:32.411Z,99.90
2019-03-17T01:15:04.002Z,99.90
2019-03-17T01:17:35.654Z,99.90
2019-03-17T01:20:09.030Z,99.90
2019-03-17T01:22:40.689Z,99.90
2019-03-17T01:25:13.131Z,99.90
2019-03-17T01:27:44.880Z,99.90
2019-03-17T01:30:16.567Z,99.90
2019-03-17T01:32:48.335Z,99.90
2019-03-17T01:35:20.246Z,99.90
2019-03-17T01:37:52.066Z,99.90
2019-03-17T01:40:23.689Z,99.90
2019-03-17T01:42:55.450Z,99.90
2019-03-17T01:45:27.117Z,99.90
2019-03-17T01:47:58.756Z,99.90
2019-03-17T01:50:30.580Z,99.90
2019-03-17T01:53:02.247Z,99.90
2019-03-17T01:55:33.926Z,99.90
2019-03-17T01:58:06.069Z,99.90
2019-03-17T02:00:38.056Z,99.90
2019-03-17T02:03:09.781Z,99.90
2019-03-17T02:05:41.585Z,99.90
2019-03-17T02:08:13.677Z,99.90
2019-03-17T02:10:45.307Z,99.90
2019-03-17T02:13:17.051Z,99.90
2019-03-17T02:15:48.837Z,99.90
2019-03-17T02:18:20.638Z,99.90
2019-03-17T02:20:52.394Z,99.90
2019-03-17T02:23:24.119Z,99.90
2019-03-17T02:25:55.989Z,99.90
2019-03-17T02:28:27.731Z,99.90
2019-03-17T02:31:00.480Z,99.90
2019-03-17T02:33:32.095Z,99.90
2019-03-17T02:36:03.686Z,99.90
2019-03-17T02:38:35.478Z,99.90
2019-03-17T02:41:07.398Z,99.90
2019-03-17T02:43:39.113Z,99.90
2019-03-17T02:46:10.849Z,99.90
2019-03-17T02:48:42.573Z,99.90
2019-03-17T02:51:14.387Z,99.90
2019-03-17T02:53:46.074Z,99.90
2019-03-17T02:56:17.760Z,99.90
2019-03-17T02:58:49.403Z,99.90
2019-03-17T03:01:21.201Z,99.90
2019-03-17T03:03:52.959Z,99.90
2019-03-17T03:06:24.818Z,99.90
2019-03-17T03:08:56.523Z,99.90
2019-03-17T03:11:28.416Z,99.90
2019-03-17T03:14:00.047Z,99.90
2019-03-17T03:16:31.871Z,99.90
2019-03-17T03:19:03.626Z,99.90
2019-03-17T03:21:35.267Z,99.90
2019-03-17T03:24:06.927Z,99.90
2019-03-17T03:26:39.617Z,99.90
2019-03-17T03:29:11.508Z,99.90
2019-03-17T03:31:43.295Z,99.90
2019-03-17T03:34:15.042Z,99.90
2019-03-17T03:36:46.828Z,99.90
2019-03-17T03:39:18.372Z,99.90
2019-03-17T03:41:50.091Z,99.90
2019-03-17T03:44:21.901Z,99.90
2019-03-17T03:46:53.659Z,99.90
2019-03-17T03:49:25.903Z,99.90
2019-03-17T03:51:57.720Z,99.90
2019-03-17T03:54:29.374Z,99.90
2019-03-17T03:57:01.106Z,99.90
2019-03-17T03:59:32.812Z,99.90
2019-03-17T04:02:04.638Z,99.90
2019-03-17T04:04:37.357Z,99.90
2019-03-17T04:07:09.100Z,99.90
2019-03-17T04:09:40.850Z,99.90
2019-03-17T04:12:12.760Z,99.90
2019-03-17T04:14:44.439Z,99.90
2019-03-17T04:17:16.189Z,99.90
2019-03-17T04:19:47.933Z,99.90
2019-03-17T04:22:19.683Z,99.90
2019-03-17T04:24:51.497Z,99.90
2019-03-17T04:27:24.268Z,99.90
2019-03-17T04:29:55.950Z,99.90
2019-03-17T04:32:27.615Z,99.90
2019-03-17T04:34:59.342Z,99.90
2019-03-17T04:37:31.746Z,99.90
2019-03-17T04:40:03.398Z,99.90
2019-03-17T04:42:35.055Z,99.90
2019-03-17T04:45:07.847Z,99.90
2019-03-17T04:47:39.684Z,99.90
2019-03-17T04:50:11.492Z,99.90
2019-03-17T04:52:43.373Z,99.90
2019-03-17T04:55:16.165Z,99.90
2019-03-17T04:57:48.036Z,99.90
2019-03-17T05:00:20.009Z,99.90
2019-03-17T05:02:51.819Z,99.90
2019-03-17T05:05:24.482Z,99.90
2019-03-17T05:07:56.147Z,99.90
2019-03-17T05:10:27.872Z,99.90
2019-03-17T05:12:59.571Z,99.90
2019-03-17T05:15:31.635Z,99.90
2019-03-17T05:18:03.424Z,99.90
2019-03-17T05:20:35.150Z,99.90
2019-03-17T05:23:07.014Z,99.90
2019-03-17T05:25:38.664Z,99.90
2019-03-17T05:28:10.365Z,99.90
2019-03-17T05:30:42.065Z,99.90
2019-03-17T05:33:13.739Z,99.90
2019-03-17T05:35:45.503Z,99.90
2019-03-17T05:38:17.134Z,99.90
2019-03-17T05:40:48.854Z,99.90
2019-03-17T05:43:20.672Z,99.90
2019-03-17T05:45:52.451Z,99.90
2019-03-17T05:48:24.090Z,99.90
2019-03-17T05:50:55.801Z,99.90
2019-03-17T05:53:27.652Z,99.90
2019-03-17T05:56:01.091Z,99.90
2019-03-17T05:58:32.741Z,99.90
2019-03-17T06:01:04.581Z,99.90
2019-03-17T06:03:37.301Z,99.90
2019-03-17T06:06:09.067Z,99.90
2019-03-17T06:08:40.852Z,99.90
2019-03-17T06:11:12.501Z,99.90
2019-03-17T06:13:44.207Z,99.90
2019-03-17T06:16:15.876Z,99.90
2019-03-17T06:18:47.626Z,99.90
2019-03-17T06:21:19.372Z,99.90
2019-03-17T06:23:50.945Z,99.90
2019-03-17T06:26:22.723Z,99.90
2019-03-17T06:28:54.793Z,99.90
2019-03-17T06:31:26.562Z,99.90
2019-03-17T06:33:58.215Z,99.90
2019-03-17T06:36:30.019Z,99.90
2019-03-17T06:39:01.700Z,99.90
2019-03-17T06:41:34.853Z,99.90
2019-03-17T06:44:06.602Z,99.90
2019-03-17T06:46:38.537Z,99.90
2019-03-17T06:49:10.260Z,99.90
2019-03-17T06:51:42.300Z,99.90
2019-03-17T06:54:13.941Z,99.90
2019-03-17T06:56:45.760Z,99.90
2019-03-17T06:59:17.844Z,99.90
2019-03-17T07:01:49.709Z,99.90
2019-03-17T07:04:21.605Z,99.90
2019-03-17T07:06:54.238Z,99.90
2019-03-17T07:09:25.983Z,99.90
2019-03-17T07:11:57.824Z,99.90
2019-03-17T07:14:29.403Z,99.90
2019-03-17T07:17:01.300Z,99.90
2019-03-17T07:19:33.051Z,99.90
2019-03-17T07:22:04.784Z,99.90
2019-03-17T07:24:36.444Z,99.90
2019-03-17T07:27:09.155Z,99.90
2019-03-17T07:29:40.824Z,99.90
2019-03-17T07:32:12.617Z,99.90
2019-03-17T07:34:44.374Z,99.90
2019-03-17T07:37:16.184Z,99.90
2019-03-17T07:39:47.914Z,99.90
2019-03-17T07:42:19.645Z,99.90
2019-03-17T07:44:51.412Z,99.90
2019-03-17T07:47:23.104Z,99.90
2019-03-17T07:49:54.742Z,99.90
2019-03-17T07:52:26.562Z,99.90
2019-03-17T07:54:58.318Z,99.90
2019-03-17T07:57:30.127Z,99.90
2019-03-17T08:00:01.854Z,99.90
2019-03-17T08:02:33.646Z,99.90
2019-03-17T08:05:07.102Z,99.90
2019-03-17T08:07:39.122Z,99.90
2019-03-17T08:10:11.691Z,99.90
2019-03-17T08:12:43.460Z,99.90
2019-03-17T08:15:16.507Z,99.90
2019-03-17T08:17:48.273Z,99.90
2019-03-17T08:20:20.270Z,99.90
2019-03-17T08:22:52.081Z,99.90
2019-03-17T08:25:23.810Z,99.90
2019-03-17T08:27:55.550Z,99.90
2019-03-17T08:30:27.348Z,99.90
2019-03-17T08:32:59.139Z,99.90
2019-03-17T08:35:30.824Z,99.90
2019-03-17T08:38:02.647Z,99.90
2019-03-17T08:40:34.284Z,99.90
2019-03-17T08:43:06.104Z,99.90
2019-03-17T08:45:38.134Z,99.90
2019-03-17T08:48:12.074Z,99.90
2019-03-17T08:50:43.692Z,99.90
2019-03-17T08:53:15.424Z,99.90
2019-03-17T08:55:47.134Z,99.90
2019-03-17T08:58:18.914Z,99.90
2019-03-17T09:00:50.785Z,99.90
2019-03-17T09:03:22.485Z,99.90
2019-03-17T09:05:54.243Z,99.90
2019-03-17T09:08:34.965Z,99.90
2019-03-17T09:10:59.762Z,99.90
2019-03-17T09:13:33.203Z,99.90
2019-03-17T09:16:05.320Z,99.90
2019-03-17T09:18:37.000Z,99.90
2019-03-17T09:21:09.090Z,99.90
2019-03-17T09:23:42.699Z,99.90
2019-03-17T09:26:14.860Z,99.90
2019-03-17T09:28:46.775Z,99.90
2019-03-17T09:31:18.350Z,99.90
2019-03-17T09:33:50.491Z,99.90
2019-03-17T09:36:22.218Z,99.90
2019-03-17T09:38:54.270Z,99.90
2019-03-17T09:41:25.920Z,99.90
2019-03-17T09:43:57.580Z,99.90
2019-03-17T09:46:29.221Z,99.90
2019-03-17T09:49:00.961Z,99.90
2019-03-17T09:51:32.620Z,99.90
2019-03-17T09:54:04.392Z,99.90
2019-03-17T09:56:36.070Z,99.90
2019-03-17T09:59:07.840Z,99.90
2019-03-17T10:01:39.550Z,99.90
2019-03-17T10:04:11.339Z,99.90
2019-03-17T10:06:43.191Z,99.90
2019-03-17T10:09:14.878Z,99.90
2019-03-17T10:11:46.760Z,99.90
2019-03-17T10:14:18.460Z,99.90
2019-03-17T10:16:50.398Z,99.90
2019-03-17T10:19:22.420Z,99.90
2019-03-17T10:21:54.312Z,99.90
2019-03-17T10:24:25.990Z,99.90
2019-03-17T10:26:57.672Z,99.90
2019-03-17T10:29:29.410Z,99.90
2019-03-17T10:32:01.180Z,99.90
2019-03-17T10:34:34.010Z,99.90
2019-03-17T10:37:05.893Z,99.90
2019-03-17T10:39:37.590Z,99.90
2019-03-17T10:42:09.560Z,99.90
2019-03-17T10:44:41.714Z,99.90
2019-03-17T10:47:13.848Z,99.90
2019-03-17T10:49:45.710Z,99.90
2019-03-17T10:52:17.328Z,99.90
2019-03-17T10:54:49.080Z,99.90
2019-03-17T10:57:20.970Z,99.90
2019-03-17T10:59:53.250Z,99.90
2019-03-17T11:02:25.062Z,99.90
2019-03-17T11:04:56.801Z,99.90
2019-03-17T11:07:28.573Z,99.90
2019-03-17T11:10:00.251Z,99.90
2019-03-17T11:12:32.117Z,99.90
2019-03-17T11:15:04.120Z,99.90
2019-03-17T11:17:35.934Z,99.90
2019-03-17T11:20:08.794Z,99.90
2019-03-17T11:22:40.790Z,99.90
2019-03-17T11:25:12.530Z,99.90
2019-03-17T11:27:44.372Z,99.90
2019-03-17T11:30:16.330Z,99.90
2019-03-17T11:32:48.288Z,99.90
2019-03-17T11:35:21.084Z,99.90
2019-03-17T11:37:52.876Z,99.90
2019-03-17T11:40:24.897Z,99.90
2019-03-17T11:42:56.764Z,99.90
2019-03-17T11:45:28.546Z,99.90
2019-03-17T11:48:00.317Z,99.90
2019-03-17T11:50:32.081Z,99.90
2019-03-17T11:53:03.658Z,99.90
2019-03-17T11:55:35.609Z,99.90
2019-03-17T11:58:07.368Z,99.90
2019-03-17T12:00:39.303Z,99.90
2019-03-17T12:03:11.022Z,99.90
2019-03-17T12:05:42.671Z,99.90
2019-03-17T12:08:14.590Z,99.90
2019-03-17T12:10:46.328Z,99.90
2019-03-17T12:13:18.062Z,99.90
2019-03-17T12:15:50.011Z,99.90
2019-03-17T12:18:21.728Z,99.90
2019-03-17T12:20:53.467Z,99.90
2019-03-17T12:23:25.203Z,99.90
2019-03-17T12:25:56.903Z,99.90
2019-03-17T12:28:28.575Z,99.90
2019-03-17T12:31:01.952Z,99.90
2019-03-17T12:33:33.667Z,99.90
2019-03-17T12:36:05.757Z,99.90
2019-03-17T12:38:37.477Z,99.90
2019-03-17T12:41:09.146Z,99.90
2019-03-17T12:43:40.837Z,99.90
2019-03-17T12:46:12.598Z,99.90
2019-03-17T12:48:44.263Z,99.90
2019-03-17T12:51:15.896Z,98.70
2019-03-17T12:53:47.619Z,97.10
2019-03-17T12:56:19.331Z,97.10
2019-03-17T12:58:51.171Z,96.00
2019-03-17T13:01:23.038Z,96.00
2019-03-17T13:03:54.698Z,95.90
2019-03-17T13:06:26.421Z,96.40
2019-03-17T13:09:00.879Z,95.50
2019-03-17T13:11:31.396Z,93.30
2019-03-17T13:14:03.080Z,91.40
2019-03-17T13:16:34.918Z,90.90
2019-03-17T13:19:06.517Z,91.90
2019-03-17T13:21:38.236Z,91.60
2019-03-17T13:24:10.275Z,90.40
2019-03-17T13:26:42.036Z,90.80
2019-03-17T13:29:13.712Z,88.60
2019-03-17T13:31:45.543Z,88.00
2019-03-17T13:34:17.290Z,87.00
2019-03-17T13:36:49.062Z,87.20
2019-03-17T13:39:20.996Z,87.20
2019-03-17T13:41:52.800Z,88.10
2019-03-17T13:44:24.593Z,87.00
2019-03-17T13:46:56.274Z,88.40
2019-03-17T13:49:28.152Z,85.50
2019-03-17T13:51:59.970Z,86.10
2019-03-17T13:54:31.873Z,87.40
2019-03-17T13:57:03.688Z,88.10
2019-03-17T13:59:35.459Z,87.30
2019-03-17T14:02:07.296Z,87.20
2019-03-17T14:04:39.119Z,86.90
2019-03-17T14:07:10.776Z,87.50
2019-03-17T14:09:42.340Z,87.50
2019-03-17T14:12:14.193Z,87.70
2019-03-17T14:14:46.986Z,86.70
2019-03-17T14:17:19.904Z,86.50
2019-03-17T14:19:51.720Z,87.20
2019-03-17T14:22:23.543Z,86.30
2019-03-17T14:24:55.205Z,85.90
2019-03-17T14:27:27.056Z,85.10
2019-03-17T14:29:58.770Z,83.80
2019-03-17T14:32:30.569Z,83.60
2019-03-17T14:35:02.215Z,83.10
2019-03-17T14:37:33.938Z,83.10
2019-03-17T14:40:06.558Z,84.60
2019-03-17T14:42:38.452Z,83.60
2019-03-17T14:45:11.410Z,82.50
2019-03-17T14:47:43.079Z,81.70
2019-03-17T14:50:16.695Z,79.60
2019-03-17T14:52:49.464Z,77.30
2019-03-17T14:55:22.532Z,76.80
2019-03-17T14:57:54.409Z,75.60
2019-03-17T15:00:26.176Z,74.90
2019-03-17T15:02:57.845Z,75.90
2019-03-17T15:05:30.918Z,75.20
2019-03-17T15:08:02.778Z,74.90
2019-03-17T15:10:34.395Z,73.70
2019-03-17T15:13:06.259Z,73.30
2019-03-17T15:15:37.853Z,72.60
2019-03-17T15:18:09.806Z,73.30
2019-03-17T15:20:41.910Z,71.90
2019-03-17T15:23:13.734Z,69.90
2019-03-17T15:25:45.483Z,68.80
2019-03-17T15:28:17.473Z,67.80
2019-03-17T15:31:05.598Z,67.50
2019-03-17T15:33:23.023Z,67.50
2019-03-17T15:35:54.852Z,67.80
2019-03-17T15:38:26.579Z,67.60
2019-03-17T15:40:59.208Z,67.10
2019-03-17T15:43:30.985Z,67.50
2019-03-17T15:46:02.678Z,66.30
2019-03-17T15:48:35.430Z,66.00
2019-03-17T15:51:19.263Z,65.60
2019-03-17T15:53:40.488Z,65.10
2019-03-17T15:56:12.257Z,65.50
2019-03-17T15:58:44.022Z,65.90
2019-03-17T16:01:16.006Z,64.80
2019-03-17T16:03:48.161Z,64.70
2019-03-17T16:06:19.984Z,65.10
2019-03-17T16:08:51.728Z,65.10
2019-03-17T16:11:30.814Z,65.20
2019-03-17T16:13:56.904Z,65.30
2019-03-17T16:16:28.797Z,65.90
2019-03-17T16:19:00.497Z,67.10
2019-03-17T16:21:32.268Z,67.20
2019-03-17T16:24:04.037Z,66.90
2019-03-17T16:26:35.696Z,67.50
2019-03-17T16:29:07.445Z,68.00
2019-03-17T16:31:39.108Z,68.40
2019-03-17T16:34:11.861Z,69.10
2019-03-17T16:36:43.768Z,69.80
2019-03-17T16:39:15.653Z,70.40
2019-03-17T16:41:47.327Z,71.30
2019-03-17T16:44:19.123Z,71.20
2019-03-17T16:46:51.116Z,71.60
2019-03-17T16:49:22.895Z,72.00
2019-03-17T16:51:54.733Z,72.30
2019-03-17T16:54:26.408Z,72.80
2019-03-17T16:56:58.083Z,73.10
2019-03-17T16:59:29.731Z,73.80
2019-03-17T17:02:01.524Z,74.50
2019-03-17T17:04:33.121Z,75.00
2019-03-17T17:07:04.843Z,75.30
2019-03-17T17:09:36.561Z,75.90
2019-03-17T17:12:08.325Z,76.00
2019-03-17T17:14:39.969Z,76.50
2019-03-17T17:17:11.634Z,76.70
2019-03-17T17:19:43.329Z,76.20
2019-03-17T17:22:15.044Z,76.60
2019-03-17T17:24:46.913Z,76.60
2019-03-17T17:27:20.603Z,77.40
2019-03-17T17:29:52.095Z,77.70
2019-03-17T17:32:23.887Z,77.90
2019-03-17T17:34:55.821Z,77.90
2019-03-17T17:37:27.515Z,78.90
2019-03-17T17:39:59.199Z,78.30
2019-03-17T17:42:31.000Z,79.10
2019-03-17T17:45:02.711Z,79.70
2019-03-17T17:47:34.412Z,80.40
2019-03-17T17:50:07.098Z,80.80
2019-03-17T17:52:38.893Z,81.80
2019-03-17T17:55:10.692Z,81.80
2019-03-17T17:57:42.548Z,82.10
2019-03-17T18:00:17.569Z,82.00
2019-03-17T18:02:49.642Z,82.40
2019-03-17T18:05:21.262Z,82.10
2019-03-17T18:07:53.191Z,83.00
2019-03-17T18:10:25.947Z,81.40
2019-03-17T18:12:57.601Z,81.80
2019-03-17T18:15:29.460Z,82.50
2019-03-17T18:18:01.458Z,82.80
2019-03-17T18:20:33.082Z,82.80
2019-03-17T18:23:16.876Z,83.90
2019-03-17T18:25:39.137Z,83.60
2019-03-17T18:28:11.211Z,84.50
2019-03-17T18:30:42.934Z,84.40
2019-03-17T18:33:14.686Z,84.50
2019-03-17T18:35:46.346Z,85.80
2019-03-17T18:38:18.386Z,86.00
2019-03-17T18:40:50.260Z,86.00
2019-03-17T18:43:23.526Z,86.30
2019-03-17T18:45:55.175Z,86.60
2019-03-17T18:48:26.934Z,88.10
2019-03-17T18:50:59.056Z,89.60
2019-03-17T18:53:31.028Z,91.60
2019-03-17T18:56:02.909Z,91.00
2019-03-17T18:58:35.692Z,91.50
2019-03-17T19:01:07.389Z,91.20
2019-03-17T19:03:39.150Z,91.20
2019-03-17T19:06:10.768Z,91.10
2019-03-17T19:08:42.597Z,91.40
2019-03-17T19:11:14.238Z,91.10
2019-03-17T19:13:45.862Z,91.20
2019-03-17T19:16:17.587Z,91.10
2019-03-17T19:18:49.377Z,91.30
2019-03-17T19:21:21.320Z,91.30
2019-03-17T19:23:53.038Z,91.70
2019-03-17T19:26:24.866Z,91.60
2019-03-17T19:28:56.584Z,91.40
2019-03-17T19:31:28.335Z,91.80
2019-03-17T19:34:00.152Z,91.90
2019-03-17T19:36:32.416Z,91.90
2019-03-17T19:39:05.796Z,92.10
2019-03-17T19:41:37.618Z,91.90
2019-03-17T19:44:09.532Z,92.10
2019-03-17T19:46:41.225Z,92.20
2019-03-17T19:49:13.168Z,91.90
2019-03-17T19:51:44.882Z,92.00
2019-03-17T19:54:16.722Z,91.80
2019-03-17T19:56:48.463Z,91.90
2019-03-17T19:59:20.326Z,91.70
2019-03-17T20:01:52.101Z,91.60
2019-03-17T20:04:30.455Z,91.60
2019-03-17T20:06:57.396Z,91.60
2019-03-17T20:09:29.219Z,91.40
2019-03-17T20:12:02.049Z,91.40
2019-03-17T20:14:34.075Z,91.80
2019-03-17T20:17:06.024Z,92.20
2019-03-17T20:19:37.919Z,92.60
2019-03-17T20:22:09.691Z,92.70
2019-03-17T20:24:41.489Z,93.00
2019-03-17T20:27:13.306Z,93.50
2019-03-17T20:29:45.129Z,93.90
2019-03-17T20:32:17.269Z,94.70
2019-03-17T20:34:49.135Z,94.60
2019-03-17T20:37:20.897Z,94.50
2019-03-17T20:39:54.114Z,94.40
2019-03-17T20:42:27.095Z,94.50
2019-03-17T20:44:58.922Z,95.10
2019-03-17T20:47:30.807Z,95.40
2019-03-17T20:50:02.865Z,95.80
2019-03-17T20:52:35.600Z,95.80
2019-03-17T20:55:07.713Z,96.00
2019-03-17T20:57:39.503Z,96.40
2019-03-17T21:00:13.235Z,96.40
2019-03-17T21:02:44.982Z,97.00
2019-03-17T21:05:16.462Z,97.40
2019-03-17T21:07:48.147Z,98.20
2019-03-17T21:10:19.998Z,99.90
2019-03-17T21:12:52.127Z,99.90
2019-03-17T21:15:23.833Z,99.90
2019-03-17T21:17:55.591Z,99.90
2019-03-17T21:20:27.651Z,99.90
2019-03-17T21:22:59.430Z,99.90
2019-03-17T21:25:31.389Z,99.90
2019-03-17T21:28:03.151Z,99.90
2019-03-17T21:30:34.816Z,99.90
2019-03-17T21:33:06.714Z,99.90
2019-03-17T21:35:38.447Z,99.90
2019-03-17T21:38:13.023Z,99.90
2019-03-17T21:41:01.587Z,99.90
2019-03-17T21:43:18.215Z,99.90
2019-03-17T21:45:50.178Z,99.90
2019-03-17T21:48:22.889Z,99.90
2019-03-17T21:50:54.585Z,99.90
2019-03-17T21:53:26.691Z,99.90
2019-03-17T21:55:58.583Z,99.90
2019-03-17T21:58:30.270Z,99.90
2019-03-17T22:01:02.342Z,99.90
2019-03-17T22:03:34.153Z,99.90
2019-03-17T22:06:05.854Z,99.90
2019-03-17T22:08:37.668Z,99.90
2019-03-17T22:11:09.506Z,99.90
2019-03-17T22:13:41.272Z,99.90
2019-03-17T22:16:12.963Z,99.90
2019-03-17T22:18:44.605Z,99.90
2019-03-17T22:21:16.380Z,99.90
2019-03-17T22:23:48.175Z,99.90
2019-03-17T22:26:20.021Z,99.90
2019-03-17T22:28:51.691Z,99.90
2019-03-17T22:31:23.595Z,99.90
2019-03-17T22:33:55.290Z,99.90
2019-03-17T22:36:26.950Z,99.90
2019-03-17T22:38:58.755Z,99.90
2019-03-17T22:41:30.614Z,99.90
2019-03-17T22:44:02.360Z,99.90
2019-03-17T22:46:34.080Z,99.90
2019-03-17T22:49:05.862Z,99.90
2019-03-17T22:51:37.603Z,99.90
2019-03-17T22:54:09.315Z,99.90
2019-03-17T22:56:40.967Z,99.90
2019-03-17T22:59:12.616Z,99.90
2019-03-17T23:01:44.460Z,99.90
2019-03-17T23:04:16.157Z,99.90
2019-03-17T23:06:48.016Z,99.90
2019-03-17T23:09:20.092Z,99.90
2019-03-17T23:11:51.869Z,99.90
2019-03-17T23:14:35.937Z,99.90
2019-03-17T23:16:56.993Z,99.90
2019-03-17T23:19:28.670Z,99.90
2019-03-17T23:22:04.461Z,99.90
2019-03-17T23:24:36.172Z,99.90
2019-03-17T23:27:07.980Z,99.90
2019-03-17T23:29:39.693Z,99.90
2019-03-17T23:32:12.031Z,99.90
2019-03-17T23:34:43.847Z,99.90
2019-03-17T23:37:15.670Z,99.90
2019-03-17T23:39:47.324Z,99.90
2019-03-17T23:42:19.260Z,99.90
2019-03-17T23:44:51.104Z,99.90
2019-03-17T23:50:40.514Z,99.90
2019-03-17T23:53:12.324Z,99.90
2019-03-17T23:55:44.033Z,99.90
2019-03-17T23:58:15.743Z,99.90
